PROFILE

 METAR AND TAF INFORMATION
ADDS - METARS form results

(1325 UTC 26 September 2021)
http://aviationweather.gov/metar/data/
 
WADD 261300Z 11011KT 9999 FEW017 27/24 Q1011 NOSIG
WADD 261230Z 12012KT 9999 FEW017 27/24 Q1010 NOSIG
TAF WADD 261100Z 2612/2712 11012KT 9999 SCT016 

 AIRPORT MAP

 RUNWAY INFORMATION
Runway 09 Runway length 9790 ft Runway width 148 ft
Runway elevation 11 ft Runway displaced threshold 0 ft Runway heading 88
Runway 27 Runway length 9790 ft Runway width 148 ft
Runway elevation 12 ft Runway displaced threshold 0 ft Runway heading 268

 AIRPORT FREQUENCIES
Type APP Name DIRECTOR Frequency 119.7 MHZ
Type ATIS Name ATIS Frequency 126.2 MHZ
Type GND Name NGURAH GND Frequency 118.8 MHZ
Type INFO Name INFO Frequency 8.88 MHZ
Type TMA Name RADAR Frequency 119.3 MHZ
Type TWR Name NGURAH TWR Frequency 118.1 MHZ

 AIRPORT NEAR NAVIGATION AIDS
Type VOR-DME Name Bali Frequency 116200 KHZ
Type NDB Name Bali Frequency 230 KHZ